createdAt,value
2023-04-02T00:00:53.910Z,6.47
2023-04-02T00:01:53.970Z,6.48
2023-04-02T00:02:53.931Z,6.50
2023-04-02T00:03:54.231Z,6.47
2023-04-02T00:04:53.872Z,6.46
2023-04-02T00:05:53.879Z,6.38
2023-04-02T00:06:53.812Z,6.36
2023-04-02T00:07:53.916Z,6.29
2023-04-02T00:08:53.806Z,6.21
2023-04-02T00:09:53.834Z,6.11
2023-04-02T00:10:53.814Z,6.11
2023-04-02T00:11:53.834Z,6.13
2023-04-02T00:12:53.754Z,6.13
2023-04-02T00:13:53.778Z,6.19
2023-04-02T00:14:53.720Z,6.26
2023-04-02T00:15:53.751Z,6.33
2023-04-02T00:16:53.753Z,6.36
2023-04-02T00:17:53.760Z,6.41
2023-04-02T00:18:53.728Z,6.43
2023-04-02T00:19:53.716Z,6.35
2023-04-02T00:20:53.664Z,6.30
2023-04-02T00:21:53.670Z,6.21
2023-04-02T00:22:53.653Z,6.21
2023-04-02T00:23:53.714Z,6.26
2023-04-02T00:24:53.627Z,6.21
2023-04-02T00:25:53.659Z,6.16
2023-04-02T00:26:53.604Z,6.11
2023-04-02T00:27:53.639Z,6.09
2023-04-02T00:28:53.582Z,6.06
2023-04-02T00:29:53.579Z,6.07
2023-04-02T00:30:53.611Z,6.09
2023-04-02T00:31:53.700Z,6.03
2023-04-02T00:32:53.641Z,6.06
2023-04-02T00:33:53.604Z,6.00
2023-04-02T00:34:53.521Z,5.96
2023-04-02T00:35:53.552Z,5.96
2023-04-02T00:36:53.515Z,5.96
2023-04-02T00:37:53.538Z,6.03
2023-04-02T00:38:53.481Z,6.06
2023-04-02T00:39:54.937Z,6.06
2023-04-02T00:40:53.443Z,6.11
2023-04-02T00:41:53.456Z,6.10
2023-04-02T00:42:53.438Z,6.14
2023-04-02T00:43:53.457Z,6.03
2023-04-02T00:44:53.447Z,6.04
2023-04-02T00:45:53.458Z,5.98
2023-04-02T00:46:53.385Z,5.98
2023-04-02T00:47:53.431Z,6.01
2023-04-02T00:48:53.368Z,6.01
2023-04-02T00:49:53.396Z,5.96
2023-04-02T00:50:53.361Z,5.93
2023-04-02T00:51:53.360Z,5.92
2023-04-02T00:52:53.321Z,5.92
2023-04-02T00:53:53.325Z,5.93
2023-04-02T00:54:53.275Z,5.96
2023-04-02T00:55:53.317Z,5.93
2023-04-02T00:56:53.303Z,5.89
2023-04-02T00:57:53.267Z,5.83
2023-04-02T00:58:53.251Z,5.81
2023-04-02T00:59:53.270Z,5.78
2023-04-02T01:00:53.223Z,5.73
2023-04-02T01:01:54.011Z,5.73
2023-04-02T01:03:52.654Z,5.81
2023-04-02T01:04:52.590Z,5.78
2023-04-02T01:05:52.590Z,5.78
2023-04-02T01:06:52.572Z,5.82
2023-04-02T01:07:52.806Z,5.81
2023-04-02T01:08:52.537Z,5.77
2023-04-02T01:09:52.512Z,5.77
2023-04-02T01:10:52.527Z,5.81
2023-04-02T01:11:52.577Z,5.77
2023-04-02T01:12:52.598Z,5.74
2023-04-02T01:13:52.458Z,5.70
2023-04-02T01:14:52.480Z,5.68
2023-04-02T01:15:52.489Z,5.64
2023-04-02T01:16:52.467Z,5.66
2023-04-02T01:17:52.414Z,5.70
2023-04-02T01:18:52.419Z,5.70
2023-04-02T01:19:52.473Z,5.64
2023-04-02T01:20:52.498Z,5.64
2023-04-02T01:21:52.385Z,5.66
2023-04-02T01:22:52.376Z,5.64
2023-04-02T01:23:52.342Z,5.63
2023-04-02T01:24:52.442Z,5.56
2023-04-02T01:25:52.466Z,5.55
2023-04-02T01:26:52.347Z,5.52
2023-04-02T01:27:52.298Z,5.52
2023-04-02T01:28:52.306Z,5.55
2023-04-02T01:29:52.305Z,5.55
2023-04-02T01:30:52.293Z,5.53
2023-04-02T01:31:52.405Z,5.50
2023-04-02T01:32:52.308Z,5.53
2023-04-02T01:33:52.239Z,5.53
2023-04-02T01:34:52.337Z,5.52
2023-04-02T01:35:52.223Z,5.55
2023-04-02T01:36:52.239Z,5.59
2023-04-02T01:37:52.207Z,5.64
2023-04-02T01:38:52.353Z,5.70
2023-04-02T01:39:52.321Z,5.73
2023-04-02T01:40:52.183Z,5.74
2023-04-02T01:41:52.173Z,5.77
2023-04-02T01:42:52.148Z,5.73
2023-04-02T01:43:52.134Z,5.77
2023-04-02T01:44:52.151Z,5.78
2023-04-02T01:45:52.091Z,5.70
2023-04-02T01:46:52.136Z,5.63
2023-04-02T01:47:52.115Z,5.66
2023-04-02T01:48:52.118Z,5.71
2023-04-02T01:49:52.076Z,5.77
2023-04-02T01:50:52.061Z,5.78
2023-04-02T01:51:52.025Z,5.77
2023-04-02T01:52:52.051Z,5.77
2023-04-02T01:53:52.028Z,5.73
2023-04-02T01:54:52.014Z,5.71
2023-04-02T01:55:51.987Z,5.73
2023-04-02T01:56:52.052Z,5.77
2023-04-02T01:57:51.968Z,5.73
2023-04-02T01:58:51.999Z,5.64
2023-04-02T01:59:51.949Z,5.59
2023-04-02T02:00:51.986Z,5.66
2023-04-02T02:01:51.952Z,5.55
2023-04-02T02:02:52.053Z,5.50
2023-04-02T02:03:51.899Z,5.43
2023-04-02T02:04:51.909Z,5.35
2023-04-02T02:05:51.887Z,5.32
2023-04-02T02:06:51.893Z,5.30
2023-04-02T02:07:51.844Z,5.27
2023-04-02T02:08:51.862Z,5.30
2023-04-02T02:09:51.818Z,5.23
2023-04-02T02:10:51.882Z,5.25
2023-04-02T02:11:51.819Z,5.31
2023-04-02T02:12:51.819Z,5.32
2023-04-02T02:13:51.800Z,5.32
2023-04-02T02:14:51.803Z,5.31
2023-04-02T02:15:51.808Z,5.27
2023-04-02T02:16:51.775Z,5.25
2023-04-02T02:17:51.786Z,5.28
2023-04-02T02:18:51.774Z,5.28
2023-04-02T02:19:51.711Z,5.23
2023-04-02T02:20:51.754Z,5.28
2023-04-02T02:21:51.707Z,5.23
2023-04-02T02:22:51.719Z,5.20
2023-04-02T02:23:51.694Z,5.20
2023-04-02T02:24:51.696Z,5.22
2023-04-02T02:25:51.696Z,5.23
2023-04-02T02:26:51.686Z,5.25
2023-04-02T02:27:51.662Z,5.31
2023-04-02T02:28:51.660Z,5.25
2023-04-02T02:29:51.611Z,5.22
2023-04-02T02:30:51.642Z,5.19
2023-04-02T02:31:51.620Z,5.16
2023-04-02T02:32:51.668Z,5.17
2023-04-02T02:33:51.577Z,5.17
2023-04-02T02:34:51.567Z,5.10
2023-04-02T02:35:51.597Z,5.05
2023-04-02T02:36:51.551Z,5.04
2023-04-02T02:37:51.538Z,5.01
2023-04-02T02:38:53.207Z,4.98
2023-04-02T02:39:51.507Z,4.99
2023-04-02T02:40:51.540Z,4.99
2023-04-02T02:41:51.488Z,4.96
2023-04-02T02:42:51.482Z,4.96
2023-04-02T02:43:51.432Z,4.96
2023-04-02T02:44:51.478Z,4.96
2023-04-02T02:45:51.464Z,4.94
2023-04-02T02:46:51.434Z,4.95
2023-04-02T02:47:51.460Z,4.94
2023-04-02T02:48:51.407Z,4.91
2023-04-02T02:49:51.397Z,4.84
2023-04-02T02:50:51.416Z,4.88
2023-04-02T02:51:51.350Z,4.88
2023-04-02T02:52:51.369Z,4.84
2023-04-02T02:53:51.347Z,4.80
2023-04-02T02:54:51.376Z,4.79
2023-04-02T02:55:51.307Z,4.76
2023-04-02T02:56:52.039Z,4.79
2023-04-02T02:57:51.307Z,4.76
2023-04-02T02:58:51.300Z,4.77
2023-04-02T02:59:51.324Z,4.77
2023-04-02T03:00:51.307Z,4.76
2023-04-02T03:01:51.298Z,4.80
2023-04-02T03:02:51.381Z,4.84
2023-04-02T03:03:51.344Z,4.92
2023-04-02T03:04:51.285Z,4.86
2023-04-02T03:05:51.206Z,4.84
2023-04-02T03:06:51.242Z,4.84
2023-04-02T03:07:51.189Z,4.88
2023-04-02T03:08:51.222Z,4.91
2023-04-02T03:09:51.156Z,4.88
2023-04-02T03:10:51.195Z,4.89
2023-04-02T03:11:51.171Z,4.83
2023-04-02T03:12:51.140Z,4.75
2023-04-02T03:13:51.111Z,4.77
2023-04-02T03:14:51.120Z,4.83
2023-04-02T03:15:51.124Z,4.83
2023-04-02T03:16:51.136Z,4.80
2023-04-02T03:17:51.066Z,4.77
2023-04-02T03:18:51.122Z,4.75
2023-04-02T03:19:51.796Z,4.76
2023-04-02T03:20:51.060Z,4.77
2023-04-02T03:21:51.046Z,4.75
2023-04-02T03:22:51.043Z,4.70
2023-04-02T03:23:51.009Z,4.72
2023-04-02T03:24:51.024Z,4.79
2023-04-02T03:25:50.969Z,4.83
2023-04-02T03:26:51.029Z,4.86
2023-04-02T03:27:50.985Z,4.83
2023-04-02T03:28:51.000Z,4.77
2023-04-02T03:29:50.999Z,4.72
2023-04-02T03:30:50.947Z,4.67
2023-04-02T03:31:50.918Z,4.62
2023-04-02T03:32:51.054Z,4.62
2023-04-02T03:33:50.952Z,4.62
2023-04-02T03:34:50.896Z,4.65
2023-04-02T03:35:50.888Z,4.59
2023-04-02T03:36:51.855Z,4.58
2023-04-02T03:37:50.893Z,4.54
2023-04-02T03:38:50.867Z,4.55
2023-04-02T03:39:51.814Z,4.59
2023-04-02T03:40:50.835Z,4.64
2023-04-02T03:41:50.804Z,4.70
2023-04-02T03:42:50.875Z,4.67
2023-04-02T03:43:50.772Z,4.61
2023-04-02T03:44:50.802Z,4.61
2023-04-02T03:45:50.788Z,4.59
2023-04-02T03:46:50.914Z,4.62
2023-04-02T03:47:50.793Z,4.65
2023-04-02T03:48:50.781Z,4.72
2023-04-02T03:49:50.834Z,4.70
2023-04-02T03:50:51.699Z,4.67
2023-04-02T03:51:50.694Z,4.55
2023-04-02T03:52:50.791Z,4.55
2023-04-02T03:53:50.662Z,4.47
2023-04-02T03:54:53.831Z,4.43
2023-04-02T03:55:50.804Z,4.43
2023-04-02T03:56:50.718Z,4.36
2023-04-02T03:57:50.675Z,4.37
2023-04-02T03:58:50.691Z,4.40
2023-04-02T03:59:50.601Z,4.39
2023-04-02T04:00:50.632Z,4.36
2023-04-02T04:01:50.660Z,4.36
2023-04-02T04:02:51.324Z,4.32
2023-04-02T04:03:50.613Z,4.28
2023-04-02T04:04:50.580Z,4.32
2023-04-02T04:05:50.615Z,4.28
2023-04-02T04:06:50.588Z,4.26
2023-04-02T04:07:50.672Z,4.26
2023-04-02T04:08:50.578Z,4.28
2023-04-02T04:09:50.509Z,4.33
2023-04-02T04:10:50.597Z,4.29
2023-04-02T04:11:50.466Z,4.28
2023-04-02T04:12:50.488Z,4.26
2023-04-02T04:13:50.527Z,4.19
2023-04-02T04:14:51.432Z,4.22
2023-04-02T04:15:50.487Z,4.29
2023-04-02T04:16:50.455Z,4.33
2023-04-02T04:17:50.433Z,4.32
2023-04-02T04:18:50.432Z,4.32
2023-04-02T04:19:50.406Z,4.25
2023-04-02T04:20:50.423Z,4.22
2023-04-02T04:21:50.360Z,4.19
2023-04-02T04:22:50.401Z,4.21
2023-04-02T04:23:50.340Z,4.14
2023-04-02T04:24:50.348Z,4.10
2023-04-02T04:25:50.338Z,4.16
2023-04-02T04:26:50.326Z,4.18
2023-04-02T04:27:50.281Z,4.14
2023-04-02T04:28:50.353Z,4.16
2023-04-02T04:29:50.282Z,4.12
2023-04-02T04:30:50.306Z,4.15
2023-04-02T04:31:50.299Z,4.14
2023-04-02T04:32:50.338Z,4.03
2023-04-02T04:33:50.218Z,4.01
2023-04-02T04:34:50.226Z,3.98
2023-04-02T04:35:50.229Z,3.97
2023-04-02T04:36:50.207Z,3.97
2023-04-02T04:37:50.197Z,3.97
2023-04-02T04:38:50.188Z,3.96
2023-04-02T04:39:50.165Z,3.92
2023-04-02T04:40:50.174Z,3.92
2023-04-02T04:41:50.140Z,3.92
2023-04-02T04:42:50.178Z,3.97
2023-04-02T04:43:50.120Z,3.98
2023-04-02T04:44:50.119Z,3.98
2023-04-02T04:45:50.125Z,3.98
2023-04-02T04:46:50.100Z,3.90
2023-04-02T04:47:50.098Z,3.86
2023-04-02T04:48:50.091Z,3.82
2023-04-02T04:49:50.773Z,3.83
2023-04-02T04:50:50.070Z,3.79
2023-04-02T04:51:50.032Z,3.75
2023-04-02T04:52:51.042Z,3.72
2023-04-02T04:53:50.040Z,3.71
2023-04-02T04:54:50.129Z,3.72
2023-04-02T04:55:50.007Z,3.67
2023-04-02T04:56:50.072Z,3.67
2023-04-02T04:57:49.961Z,3.64
2023-04-02T04:58:49.994Z,3.62
2023-04-02T04:59:49.987Z,3.62
2023-04-02T05:00:50.643Z,3.67
2023-04-02T05:01:49.974Z,3.64
2023-04-02T05:02:50.051Z,3.65
2023-04-02T05:03:49.918Z,3.64
2023-04-02T05:04:50.206Z,3.60
2023-04-02T05:05:49.864Z,3.54
2023-04-02T05:06:49.890Z,3.52
2023-04-02T05:07:49.874Z,3.47
2023-04-02T05:08:49.865Z,3.46
2023-04-02T05:09:49.854Z,3.46
2023-04-02T05:10:49.854Z,3.52
2023-04-02T05:11:49.799Z,3.54
2023-04-02T05:12:49.862Z,3.58
2023-04-02T05:13:49.770Z,3.62
2023-04-02T05:14:49.802Z,3.65
2023-04-02T05:15:49.822Z,3.64
2023-04-02T05:16:49.781Z,3.60
2023-04-02T05:17:49.798Z,3.57
2023-04-02T05:18:49.766Z,3.57
2023-04-02T05:19:49.808Z,3.54
2023-04-02T05:20:49.712Z,3.58
2023-04-02T05:21:49.724Z,3.54
2023-04-02T05:22:49.676Z,3.58
2023-04-02T05:23:49.750Z,3.62
2023-04-02T05:24:49.681Z,3.68
2023-04-02T05:25:49.674Z,3.72
2023-04-02T05:26:49.666Z,3.78
2023-04-02T05:27:49.685Z,3.70
2023-04-02T05:28:50.330Z,3.67
2023-04-02T05:29:49.647Z,3.70
2023-04-02T05:30:49.629Z,3.64
2023-04-02T05:31:49.640Z,3.53
2023-04-02T05:32:49.613Z,3.44
2023-04-02T05:33:49.619Z,3.46
2023-04-02T05:34:49.564Z,3.43
2023-04-02T05:35:49.614Z,3.40
2023-04-02T05:36:49.534Z,3.40
2023-04-02T05:37:49.586Z,3.40
2023-04-02T05:38:49.532Z,3.44
2023-04-02T05:39:49.538Z,3.42
2023-04-02T05:40:49.485Z,3.34
2023-04-02T05:41:49.511Z,3.33
2023-04-02T05:42:49.490Z,3.33
2023-04-02T05:43:49.485Z,3.33
2023-04-02T05:44:49.450Z,3.36
2023-04-02T05:45:49.463Z,3.39
2023-04-02T05:46:49.498Z,3.44
2023-04-02T05:47:49.475Z,3.36
2023-04-02T05:48:49.397Z,3.36
2023-04-02T05:49:49.422Z,3.34
2023-04-02T05:50:49.396Z,3.39
2023-04-02T05:51:49.415Z,3.40
2023-04-02T05:52:49.362Z,3.43
2023-04-02T05:53:49.390Z,3.44
2023-04-02T05:54:49.333Z,3.43
2023-04-02T05:55:49.358Z,3.42
2023-04-02T05:56:49.395Z,3.43
2023-04-02T05:58:01.300Z,3.40
2023-04-02T05:58:50.386Z,3.42
2023-04-02T05:59:49.306Z,3.40
2023-04-02T06:00:49.287Z,3.40
2023-04-02T06:01:49.394Z,3.40
2023-04-02T06:02:49.303Z,3.40
2023-04-02T06:03:49.407Z,3.36
2023-04-02T06:04:49.221Z,3.39
2023-04-02T06:05:49.292Z,3.30
2023-04-02T06:06:49.208Z,3.25
2023-04-02T06:07:49.219Z,3.25
2023-04-02T06:08:49.195Z,3.28
2023-04-02T06:09:49.209Z,3.34
2023-04-02T06:10:49.161Z,3.40
2023-04-02T06:11:49.165Z,3.46
2023-04-02T06:12:49.137Z,3.49
2023-04-02T06:13:49.157Z,3.44
2023-04-02T06:14:49.191Z,3.46
2023-04-02T06:15:49.144Z,3.46
2023-04-02T06:16:49.188Z,3.36
2023-04-02T06:17:49.134Z,3.28
2023-04-02T06:18:49.071Z,3.27
2023-04-02T06:19:49.102Z,3.25
2023-04-02T06:20:49.047Z,3.25
2023-04-02T06:21:49.084Z,3.33
2023-04-02T06:22:49.047Z,3.39
2023-04-02T06:23:49.035Z,3.42
2023-04-02T06:24:49.026Z,3.39
2023-04-02T06:25:49.016Z,3.43
2023-04-02T06:26:48.998Z,3.40
2023-04-02T06:27:49.016Z,3.40
2023-04-02T06:28:48.953Z,3.44
2023-04-02T06:29:48.975Z,3.49
2023-04-02T06:30:49.093Z,3.52
2023-04-02T06:31:49.521Z,3.54
2023-04-02T06:32:48.988Z,3.54
2023-04-02T06:33:49.230Z,3.53
2023-04-02T06:34:49.292Z,3.57
2023-04-02T06:35:49.611Z,3.58
2023-04-02T06:36:49.719Z,3.60
2023-04-02T06:37:48.892Z,3.61
2023-04-02T06:38:48.851Z,3.62
2023-04-02T06:39:48.861Z,3.53
2023-04-02T06:40:48.845Z,3.52
2023-04-02T06:41:48.856Z,3.52
2023-04-02T06:42:48.804Z,3.47
2023-04-02T06:43:48.821Z,3.47
2023-04-02T06:44:48.796Z,3.40
2023-04-02T06:45:48.867Z,3.40
2023-04-02T06:46:51.082Z,3.46
2023-04-02T06:47:48.865Z,3.52
2023-04-02T06:48:48.743Z,3.60
2023-04-02T06:49:48.765Z,3.58
2023-04-02T06:50:48.728Z,3.52
2023-04-02T06:51:48.736Z,3.50
2023-04-02T06:52:48.712Z,3.50
2023-04-02T06:53:48.735Z,3.49
2023-04-02T06:54:48.773Z,3.40
2023-04-02T06:55:48.697Z,3.39
2023-04-02T06:56:48.722Z,3.39
2023-04-02T06:57:48.786Z,3.46
2023-04-02T06:58:48.655Z,3.50
2023-04-02T06:59:48.657Z,3.58
2023-04-02T07:00:48.635Z,3.60
2023-04-02T07:01:48.732Z,3.60
2023-04-02T07:02:48.654Z,3.61
2023-04-02T07:03:48.617Z,3.54
2023-04-02T07:04:48.640Z,3.52
2023-04-02T07:05:48.586Z,3.47
2023-04-02T07:06:48.551Z,3.50
2023-04-02T07:07:48.575Z,3.58
2023-04-02T07:08:48.569Z,3.54
2023-04-02T07:09:48.542Z,3.52
2023-04-02T07:10:48.612Z,3.53
2023-04-02T07:11:48.514Z,3.52
2023-04-02T07:12:48.563Z,3.52
2023-04-02T07:13:48.496Z,3.44
2023-04-02T07:14:48.454Z,3.44
2023-04-02T07:15:48.571Z,3.47
2023-04-02T07:16:49.394Z,3.47
2023-04-02T07:17:48.521Z,3.49
2023-04-02T07:18:48.445Z,3.57
2023-04-02T07:19:48.437Z,3.64
2023-04-02T07:20:48.400Z,3.70
2023-04-02T07:21:48.417Z,3.78
2023-04-02T07:22:48.364Z,3.80
2023-04-02T07:23:48.369Z,3.83
2023-04-02T07:24:48.339Z,3.79
2023-04-02T07:25:48.391Z,3.76
2023-04-02T07:26:48.383Z,3.76
2023-04-02T07:27:48.325Z,3.78
2023-04-02T07:28:48.316Z,3.79
2023-04-02T07:29:48.309Z,3.83
2023-04-02T07:30:48.283Z,3.89
2023-04-02T07:31:48.379Z,3.97
2023-04-02T07:32:48.341Z,3.98
2023-04-02T07:33:48.276Z,3.89
2023-04-02T07:34:48.256Z,3.85
2023-04-02T07:35:48.307Z,3.76
2023-04-02T07:36:48.231Z,3.76
2023-04-02T07:37:48.236Z,3.71
2023-04-02T07:38:48.201Z,3.75
2023-04-02T07:39:48.208Z,3.75
2023-04-02T07:40:48.181Z,3.76
2023-04-02T07:41:48.204Z,3.70
2023-04-02T07:42:48.153Z,3.68
2023-04-02T07:43:48.152Z,3.60
2023-04-02T07:44:48.154Z,3.61
2023-04-02T07:45:48.144Z,3.64
2023-04-02T07:46:48.157Z,3.61
2023-04-02T07:47:48.132Z,3.61
2023-04-02T07:48:48.103Z,3.65
2023-04-02T07:49:48.150Z,3.75
2023-04-02T07:50:48.057Z,3.75
2023-04-02T07:51:48.060Z,3.70
2023-04-02T07:52:48.030Z,3.70
2023-04-02T07:53:48.032Z,3.68
2023-04-02T07:54:48.033Z,3.68
2023-04-02T07:55:48.052Z,3.62
2023-04-02T07:56:48.804Z,3.61
2023-04-02T07:57:48.022Z,3.60
2023-04-02T07:58:47.985Z,3.60
2023-04-02T07:59:48.020Z,3.64
2023-04-02T08:00:47.945Z,3.71
2023-04-02T08:01:47.984Z,3.78
2023-04-02T08:02:47.976Z,3.82
2023-04-02T08:03:48.118Z,3.76
2023-04-02T08:04:47.924Z,3.71
2023-04-02T08:05:47.950Z,3.65
2023-04-02T08:06:47.864Z,3.61
2023-04-02T08:07:47.904Z,3.62
2023-04-02T08:08:47.856Z,3.71
2023-04-02T08:09:47.876Z,3.67
2023-04-02T08:10:47.846Z,3.65
2023-04-02T08:11:47.849Z,3.60
2023-04-02T08:12:47.812Z,3.64
2023-04-02T08:13:47.843Z,3.68
2023-04-02T08:14:47.794Z,3.76
2023-04-02T08:15:47.829Z,3.76
2023-04-02T08:16:47.837Z,3.79
2023-04-02T08:17:47.878Z,3.80
2023-04-02T08:18:47.774Z,3.79
2023-04-02T08:19:54.823Z,3.68
2023-04-02T08:20:48.723Z,3.65
2023-04-02T08:21:47.748Z,3.65
2023-04-02T08:22:47.706Z,3.68
2023-04-02T08:23:47.751Z,3.71
2023-04-02T08:24:47.669Z,3.76
2023-04-02T08:25:47.695Z,3.82
2023-04-02T08:26:47.649Z,3.86
2023-04-02T08:27:47.717Z,3.90
2023-04-02T08:28:47.663Z,4.00
2023-04-02T08:29:47.646Z,4.03
2023-04-02T08:30:47.609Z,3.97
2023-04-02T08:31:47.627Z,3.94
2023-04-02T08:32:47.681Z,3.86
2023-04-02T08:33:47.622Z,3.80
2023-04-02T08:34:47.587Z,3.82
2023-04-02T08:35:47.644Z,3.79
2023-04-02T08:36:47.541Z,3.80
2023-04-02T08:37:47.565Z,3.82
2023-04-02T08:38:47.559Z,3.82
2023-04-02T08:39:47.570Z,3.89
2023-04-02T08:40:47.512Z,3.90
2023-04-02T08:41:47.536Z,3.89
2023-04-02T08:42:47.505Z,3.86
2023-04-02T08:43:47.503Z,3.89
2023-04-02T08:44:47.517Z,3.80
2023-04-02T08:45:47.537Z,3.72
2023-04-02T08:46:47.466Z,3.76
2023-04-02T08:47:47.530Z,3.80
2023-04-02T08:48:47.418Z,3.88
2023-04-02T08:49:47.455Z,3.96
2023-04-02T08:50:47.448Z,3.97
2023-04-02T08:51:47.407Z,3.98
2023-04-02T08:52:47.419Z,3.96
2023-04-02T08:53:47.387Z,3.98
2023-04-02T08:54:47.415Z,3.97
2023-04-02T08:55:47.357Z,3.90
2023-04-02T08:56:47.342Z,3.88
2023-04-02T08:57:47.361Z,3.96
2023-04-02T08:58:47.304Z,4.01
2023-04-02T08:59:47.334Z,4.04
2023-04-02T09:00:47.292Z,4.00
2023-04-02T09:01:47.372Z,3.98
2023-04-02T09:02:47.327Z,4.00
2023-04-02T09:03:47.281Z,4.03
2023-04-02T09:04:47.293Z,4.03
2023-04-02T09:05:47.278Z,4.04
2023-04-02T09:06:47.242Z,4.03
2023-04-02T09:07:47.243Z,3.97
2023-04-02T09:08:47.263Z,3.97
2023-04-02T09:09:47.212Z,3.97
2023-04-02T09:10:47.176Z,4.03
2023-04-02T09:11:47.188Z,4.06
2023-04-02T09:12:47.145Z,4.07
2023-04-02T09:13:47.203Z,4.16
2023-04-02T09:14:47.134Z,4.19
2023-04-02T09:15:47.200Z,4.22
2023-04-02T09:16:47.786Z,4.15
2023-04-02T09:17:53.970Z,4.14
2023-04-02T09:18:48.107Z,4.14
2023-04-02T09:19:47.137Z,4.21
2023-04-02T09:20:47.064Z,4.16
2023-04-02T09:21:47.080Z,4.15
2023-04-02T09:22:47.068Z,4.19
2023-04-02T09:23:47.088Z,4.22
2023-04-02T09:24:47.039Z,4.22
2023-04-02T09:25:57.342Z,4.26
2023-04-02T09:26:48.005Z,4.26
2023-04-02T09:27:47.021Z,4.29
2023-04-02T09:28:46.980Z,4.28
2023-04-02T09:29:47.017Z,4.34
2023-04-02T09:30:48.459Z,4.37
2023-04-02T09:31:47.035Z,4.42
2023-04-02T09:32:47.005Z,4.50
2023-04-02T09:33:46.971Z,4.50
2023-04-02T09:34:46.963Z,4.47
2023-04-02T09:35:46.946Z,4.52
2023-04-02T09:36:46.920Z,4.58
2023-04-02T09:37:46.893Z,4.64
2023-04-02T09:38:46.926Z,4.51
2023-04-02T09:39:47.132Z,4.46
2023-04-02T09:40:46.930Z,4.44
2023-04-02T09:41:55.794Z,4.34
2023-04-02T09:42:47.872Z,4.33
2023-04-02T09:43:46.864Z,4.26
2023-04-02T09:44:46.864Z,4.26
2023-04-02T09:45:46.831Z,4.26
2023-04-02T09:46:46.867Z,4.32
2023-04-02T09:47:48.256Z,4.32
2023-04-02T09:48:46.810Z,4.33
2023-04-02T09:49:46.795Z,4.28
2023-04-02T09:50:46.763Z,4.19
2023-04-02T09:51:46.740Z,4.22
2023-04-02T09:52:48.410Z,4.28
2023-04-02T09:53:46.703Z,4.36
2023-04-02T09:54:46.842Z,4.42
2023-04-02T09:55:46.707Z,4.42
2023-04-02T09:56:46.701Z,4.44
2023-04-02T09:57:47.324Z,4.44
2023-04-02T09:58:46.667Z,4.50
2023-04-02T09:59:46.657Z,4.54
2023-04-02T10:00:46.871Z,4.59
2023-04-02T10:01:46.992Z,4.58
2023-04-02T10:02:46.677Z,4.59
2023-04-02T10:03:46.671Z,4.55
2023-04-02T10:04:46.664Z,4.51
2023-04-02T10:05:46.966Z,4.47
2023-04-02T10:06:46.597Z,4.44
2023-04-02T10:07:47.640Z,4.47
2023-04-02T10:08:46.587Z,4.59
2023-04-02T10:09:46.556Z,4.61
2023-04-02T10:10:48.026Z,4.55
2023-04-02T10:11:46.962Z,4.58
2023-04-02T10:12:46.527Z,4.52
2023-04-02T10:13:46.517Z,4.54
2023-04-02T10:14:46.538Z,4.52
2023-04-02T10:15:46.481Z,4.50
2023-04-02T10:16:47.961Z,4.46
2023-04-02T10:17:46.713Z,4.47
2023-04-02T10:18:46.500Z,4.54
2023-04-02T10:19:46.452Z,4.61
2023-04-02T10:20:51.390Z,4.59
2023-04-02T10:21:47.548Z,4.64
2023-04-02T10:22:46.415Z,4.73
2023-04-02T10:23:46.393Z,4.79
2023-04-02T10:24:46.405Z,4.79
2023-04-02T10:25:46.383Z,4.79
2023-04-02T10:26:46.399Z,4.83
2023-04-02T10:27:47.795Z,4.79
2023-04-02T10:28:47.042Z,4.86
2023-04-02T10:29:46.338Z,4.96
2023-04-02T10:30:46.417Z,4.95
2023-04-02T10:31:46.326Z,4.96
2023-04-02T10:32:46.354Z,5.01
2023-04-02T10:33:48.237Z,4.96
2023-04-02T10:34:48.256Z,4.94
2023-04-02T10:35:47.080Z,4.84
2023-04-02T10:36:46.267Z,4.84
2023-04-02T10:37:46.275Z,4.86
2023-04-02T10:38:46.265Z,4.79
2023-04-02T10:39:46.237Z,4.65
2023-04-02T10:40:46.281Z,4.64
2023-04-02T10:41:47.636Z,4.59
2023-04-02T10:42:46.194Z,4.62
2023-04-02T10:43:46.168Z,4.67
2023-04-02T10:44:46.177Z,4.70
2023-04-02T10:45:46.208Z,4.77
2023-04-02T10:46:46.186Z,4.91
2023-04-02T10:47:47.642Z,4.94
2023-04-02T10:48:46.169Z,4.89
2023-04-02T10:49:46.181Z,4.86
2023-04-02T10:50:46.318Z,4.83
2023-04-02T10:51:46.091Z,4.80
2023-04-02T10:52:46.112Z,4.83
2023-04-02T10:53:46.092Z,4.76
2023-04-02T10:54:47.557Z,4.73
2023-04-02T10:55:46.039Z,4.75
2023-04-02T10:56:50.951Z,4.77
2023-04-02T10:57:46.013Z,4.76
2023-04-02T10:58:46.023Z,4.76
2023-04-02T10:59:46.022Z,4.80
2023-04-02T11:00:46.007Z,4.84
2023-04-02T11:01:45.999Z,4.89
2023-04-02T11:02:46.088Z,4.91
2023-04-02T11:03:47.597Z,4.91
2023-04-02T11:04:45.983Z,4.94
2023-04-02T11:05:45.925Z,4.91
2023-04-02T11:06:46.888Z,4.91
2023-04-02T11:07:45.913Z,4.91
2023-04-02T11:08:45.933Z,4.86
2023-04-02T11:09:45.885Z,4.80
2023-04-02T11:10:45.913Z,4.79
2023-04-02T11:11:46.845Z,4.89
2023-04-02T11:12:46.014Z,4.98
2023-04-02T11:13:45.832Z,4.99
2023-04-02T11:14:47.060Z,5.01
2023-04-02T11:15:45.856Z,5.05
2023-04-02T11:16:47.427Z,5.14
2023-04-02T11:17:45.833Z,5.14
2023-04-02T11:18:47.273Z,5.16
2023-04-02T11:19:45.821Z,5.16
2023-04-02T11:20:45.787Z,5.16
2023-04-02T11:21:57.944Z,5.19
2023-04-02T11:22:46.759Z,5.23
2023-04-02T11:23:45.754Z,5.28
2023-04-02T11:24:45.748Z,5.27
2023-04-02T11:25:45.724Z,5.31
2023-04-02T11:26:45.728Z,5.35
2023-04-02T11:27:45.706Z,5.34
2023-04-02T11:28:45.715Z,5.32
2023-04-02T11:29:46.408Z,5.37
2023-04-02T11:30:45.709Z,5.49
2023-04-02T11:31:45.692Z,5.53
2023-04-02T11:32:46.691Z,5.53
2023-04-02T11:33:48.080Z,5.63
2023-04-02T11:34:46.306Z,5.57
2023-04-02T11:35:45.686Z,5.55
2023-04-02T11:36:45.612Z,5.53
2023-04-02T11:37:45.594Z,5.55
2023-04-02T11:38:45.611Z,5.60
2023-04-02T11:39:45.555Z,5.67
2023-04-02T11:40:45.571Z,5.71
2023-04-02T11:41:45.542Z,5.75
2023-04-02T11:42:47.544Z,5.85
2023-04-02T11:43:45.695Z,5.89
2023-04-02T11:44:46.320Z,5.86
2023-04-02T11:45:52.660Z,5.98
2023-04-02T11:46:46.590Z,6.01
2023-04-02T11:47:45.568Z,6.01
2023-04-02T11:48:45.481Z,6.03
2023-04-02T11:49:45.435Z,6.09
2023-04-02T11:50:45.473Z,6.14
2023-04-02T11:51:45.540Z,6.16
2023-04-02T11:52:45.539Z,6.13
2023-04-02T11:53:45.403Z,6.16
2023-04-02T11:54:45.411Z,6.16
2023-04-02T11:55:45.372Z,6.16
2023-04-02T11:56:45.410Z,6.22
2023-04-02T11:57:45.591Z,6.40
2023-04-02T11:58:45.374Z,6.47
2023-04-02T11:59:45.584Z,6.38
2023-04-02T12:00:45.338Z,6.30
2023-04-02T12:01:45.348Z,6.32
2023-04-02T12:02:45.448Z,6.28
2023-04-02T12:03:45.288Z,6.30
2023-04-02T12:04:45.314Z,6.43
2023-04-02T12:05:45.337Z,6.50
2023-04-02T12:06:45.287Z,6.56
2023-04-02T12:07:45.520Z,6.54
2023-04-02T12:08:56.738Z,6.54
2023-04-02T12:09:46.219Z,6.48
2023-04-02T12:10:45.242Z,6.38
2023-04-02T12:11:45.197Z,6.33
2023-04-02T12:12:46.234Z,6.32
2023-04-02T12:13:45.195Z,6.19
2023-04-02T12:14:45.186Z,6.11
2023-04-02T12:15:46.647Z,6.09
2023-04-02T12:16:45.208Z,6.07
2023-04-02T12:17:45.173Z,6.09
2023-04-02T12:18:45.166Z,6.07
2023-04-02T12:19:45.115Z,6.11
2023-04-02T12:20:46.612Z,6.13
2023-04-02T12:21:45.119Z,6.19
2023-04-02T12:22:45.104Z,6.16
2023-04-02T12:23:45.104Z,6.13
2023-04-02T12:24:45.074Z,6.18
2023-04-02T12:25:45.097Z,6.18
2023-04-02T12:26:45.421Z,6.16
2023-04-02T12:27:45.202Z,6.11
2023-04-02T12:28:45.039Z,6.13
2023-04-02T12:29:45.103Z,6.10
2023-04-02T12:30:45.063Z,6.11
2023-04-02T12:31:45.005Z,6.07
2023-04-02T12:32:45.026Z,6.06
2023-04-02T12:33:44.968Z,6.13
2023-04-02T12:34:44.961Z,6.16
2023-04-02T12:35:44.991Z,6.21
2023-04-02T12:36:44.976Z,6.11
2023-04-02T12:37:44.915Z,6.06
2023-04-02T12:38:44.921Z,5.98
2023-04-02T12:39:44.908Z,5.95
2023-04-02T12:40:44.948Z,5.98
2023-04-02T12:41:44.893Z,6.04
2023-04-02T12:42:44.903Z,6.07
2023-04-02T12:43:46.305Z,6.21
2023-04-02T12:44:44.898Z,6.30
2023-04-02T12:45:44.826Z,6.25
2023-04-02T12:46:44.867Z,6.26
2023-04-02T12:47:44.833Z,6.26
2023-04-02T12:48:44.823Z,6.30
2023-04-02T12:49:44.795Z,6.32
2023-04-02T12:50:44.785Z,6.35
2023-04-02T12:51:44.855Z,6.25
2023-04-02T12:52:44.794Z,6.19
2023-04-02T12:53:44.732Z,6.11
2023-04-02T12:54:44.750Z,6.10
2023-04-02T12:55:44.737Z,6.13
2023-04-02T12:56:46.247Z,6.25
2023-04-02T12:57:44.705Z,6.32
2023-04-02T12:58:44.722Z,6.35
2023-04-02T12:59:44.692Z,6.38
2023-04-02T13:00:44.668Z,6.40
2023-04-02T13:01:44.680Z,6.35
2023-04-02T13:02:44.706Z,6.19
2023-04-02T13:03:44.718Z,6.11
2023-04-02T13:04:44.669Z,6.07
2023-04-02T13:05:44.630Z,6.01
2023-04-02T13:06:44.643Z,5.98
2023-04-02T13:07:44.603Z,5.95
2023-04-02T13:08:44.601Z,6.03
2023-04-02T13:09:44.573Z,6.09
2023-04-02T13:10:44.580Z,6.13
2023-04-02T13:11:44.564Z,6.10
2023-04-02T13:12:44.592Z,6.09
2023-04-02T13:13:44.523Z,6.10
2023-04-02T13:14:44.542Z,6.10
2023-04-02T13:15:44.580Z,6.13
2023-04-02T13:16:44.546Z,6.13
2023-04-02T13:17:44.572Z,6.19
2023-04-02T13:18:44.539Z,6.26
2023-04-02T13:19:44.571Z,6.26